sensor_id;sensor_type;location;lat;lon;timestamp;temperature;humidity
46336;DHT22;31365;48.858;8.530;2023-04-12T00:00:07;10.10;99.90
46336;DHT22;31365;48.858;8.530;2023-04-12T00:02:38;10.10;99.90
46336;DHT22;31365;48.858;8.530;2023-04-12T00:05:08;10.00;99.90
46336;DHT22;31365;48.858;8.530;2023-04-12T00:07:37;10.00;99.90
46336;DHT22;31365;48.858;8.530;2023-04-12T00:10:08;10.00;99.90
46336;DHT22;31365;48.858;8.530;2023-04-12T00:12:36;9.90;99.90
46336;DHT22;31365;48.858;8.530;2023-04-12T00:15:08;9.90;99.90
46336;DHT22;31365;48.858;8.530;2023-04-12T00:17:36;9.90;99.90
46336;DHT22;31365;48.858;8.530;2023-04-12T00:20:06;9.80;99.90
46336;DHT22;31365;48.858;8.530;2023-04-12T00:22:38;9.70;99.90
46336;DHT22;31365;48.858;8.530;2023-04-12T00:25:09;9.70;99.90
46336;DHT22;31365;48.858;8.530;2023-04-12T00:27:38;9.60;99.90
46336;DHT22;31365;48.858;8.530;2023-04-12T00:30:07;9.50;99.90
46336;DHT22;31365;48.858;8.530;2023-04-12T00:32:36;9.40;99.90
46336;DHT22;31365;48.858;8.530;2023-04-12T00:35:05;9.30;99.90
46336;DHT22;31365;48.858;8.530;2023-04-12T00:37:34;9.30;99.90
46336;DHT22;31365;48.858;8.530;2023-04-12T00:40:05;9.20;99.90
46336;DHT22;31365;48.858;8.530;2023-04-12T00:42:37;9.20;99.90
46336;DHT22;31365;48.858;8.530;2023-04-12T00:45:06;9.20;99.90
46336;DHT22;31365;48.858;8.530;2023-04-12T00:47:36;9.20;99.90
46336;DHT22;31365;48.858;8.530;2023-04-12T00:50:05;9.20;99.90
46336;DHT22;31365;48.858;8.530;2023-04-12T00:52:35;9.20;99.90
46336;DHT22;31365;48.858;8.530;2023-04-12T00:55:06;9.20;99.90
46336;DHT22;31365;48.858;8.530;2023-04-12T00:57:38;9.20;99.90
46336;DHT22;31365;48.858;8.530;2023-04-12T01:00:08;9.20;99.90
46336;DHT22;31365;48.858;8.530;2023-04-12T01:02:41;9.10;99.90
46336;DHT22;31365;48.858;8.530;2023-04-12T01:05:16;9.10;99.90
46336;DHT22;31365;48.858;8.530;2023-04-12T01:08:00;9.10;99.90
46336;DHT22;31365;48.858;8.530;2023-04-12T01:10:40;9.00;99.90
46336;DHT22;31365;48.858;8.530;2023-04-12T01:13:20;8.90;99.90
46336;DHT22;31365;48.858;8.530;2023-04-12T01:16:03;8.90;99.90
46336;DHT22;31365;48.858;8.530;2023-04-12T01:18:36;8.90;99.90
46336;DHT22;31365;48.858;8.530;2023-04-12T01:21:13;8.80;99.90
46336;DHT22;31365;48.858;8.530;2023-04-12T01:24:08;8.80;99.90
46336;DHT22;31365;48.858;8.530;2023-04-12T01:26:50;8.80;99.90
46336;DHT22;31365;48.858;8.530;2023-04-12T01:29:28;8.80;99.90
46336;DHT22;31365;48.858;8.530;2023-04-12T01:32:00;8.70;99.90
46336;DHT22;31365;48.858;8.530;2023-04-12T01:34:32;8.70;99.90
46336;DHT22;31365;48.858;8.530;2023-04-12T01:37:05;8.70;99.90
46336;DHT22;31365;48.858;8.530;2023-04-12T01:39:38;8.70;99.90
46336;DHT22;31365;48.858;8.530;2023-04-12T01:42:07;8.80;99.90
46336;DHT22;31365;48.858;8.530;2023-04-12T01:44:36;8.80;99.90
46336;DHT22;31365;48.858;8.530;2023-04-12T01:47:05;8.80;99.90
46336;DHT22;31365;48.858;8.530;2023-04-12T01:52:30;8.80;99.90
46336;DHT22;31365;48.858;8.530;2023-04-12T01:55:04;8.70;99.90
46336;DHT22;31365;48.858;8.530;2023-04-12T01:57:35;8.70;99.90
46336;DHT22;31365;48.858;8.530;2023-04-12T02:00:08;8.70;99.90
46336;DHT22;31365;48.858;8.530;2023-04-12T02:02:41;8.70;99.90
46336;DHT22;31365;48.858;8.530;2023-04-12T02:05:11;8.80;99.90
46336;DHT22;31365;48.858;8.530;2023-04-12T02:07:41;8.80;99.90
46336;DHT22;31365;48.858;8.530;2023-04-12T02:10:12;8.80;99.90
46336;DHT22;31365;48.858;8.530;2023-04-12T02:12:41;8.80;99.90
46336;DHT22;31365;48.858;8.530;2023-04-12T02:15:11;8.80;99.90
46336;DHT22;31365;48.858;8.530;2023-04-12T02:17:39;8.80;99.90
46336;DHT22;31365;48.858;8.530;2023-04-12T02:20:08;8.80;99.90
46336;DHT22;31365;48.858;8.530;2023-04-12T02:22:37;8.80;99.90
46336;DHT22;31365;48.858;8.530;2023-04-12T02:25:06;8.80;99.90
46336;DHT22;31365;48.858;8.530;2023-04-12T02:27:34;8.80;99.90
46336;DHT22;31365;48.858;8.530;2023-04-12T02:30:05;8.90;99.90
46336;DHT22;31365;48.858;8.530;2023-04-12T02:32:36;8.90;99.90
46336;DHT22;31365;48.858;8.530;2023-04-12T02:35:14;8.90;99.90
46336;DHT22;31365;48.858;8.530;2023-04-12T02:37:45;8.90;99.90
46336;DHT22;31365;48.858;8.530;2023-04-12T02:40:15;8.90;99.90
46336;DHT22;31365;48.858;8.530;2023-04-12T02:42:43;8.90;99.90
46336;DHT22;31365;48.858;8.530;2023-04-12T02:45:13;8.90;99.90
46336;DHT22;31365;48.858;8.530;2023-04-12T02:47:43;8.90;99.90
46336;DHT22;31365;48.858;8.530;2023-04-12T02:50:12;8.90;99.90
46336;DHT22;31365;48.858;8.530;2023-04-12T02:52:50;8.80;99.90
46336;DHT22;31365;48.858;8.530;2023-04-12T02:55:18;8.80;99.90
46336;DHT22;31365;48.858;8.530;2023-04-12T02:57:46;8.80;99.90
46336;DHT22;31365;48.858;8.530;2023-04-12T03:00:34;8.80;99.90
46336;DHT22;31365;48.858;8.530;2023-04-12T03:03:04;8.80;99.90
46336;DHT22;31365;48.858;8.530;2023-04-12T03:05:32;8.80;99.90
46336;DHT22;31365;48.858;8.530;2023-04-12T03:08:00;8.70;99.90
46336;DHT22;31365;48.858;8.530;2023-04-12T03:10:45;8.70;99.90
46336;DHT22;31365;48.858;8.530;2023-04-12T03:13:13;8.70;99.90
46336;DHT22;31365;48.858;8.530;2023-04-12T03:15:46;8.80;99.90
46336;DHT22;31365;48.858;8.530;2023-04-12T03:18:18;8.80;99.90
46336;DHT22;31365;48.858;8.530;2023-04-12T03:20:51;8.80;99.90
46336;DHT22;31365;48.858;8.530;2023-04-12T03:23:19;8.80;99.90
46336;DHT22;31365;48.858;8.530;2023-04-12T03:25:57;8.80;99.90
46336;DHT22;31365;48.858;8.530;2023-04-12T03:28:29;8.90;99.90
46336;DHT22;31365;48.858;8.530;2023-04-12T03:30:59;8.80;99.90
46336;DHT22;31365;48.858;8.530;2023-04-12T03:33:46;8.80;99.90
46336;DHT22;31365;48.858;8.530;2023-04-12T03:36:23;8.70;99.90
46336;DHT22;31365;48.858;8.530;2023-04-12T03:39:13;8.70;99.90
46336;DHT22;31365;48.858;8.530;2023-04-12T03:41:43;8.60;99.90
46336;DHT22;31365;48.858;8.530;2023-04-12T03:44:12;8.60;99.90
46336;DHT22;31365;48.858;8.530;2023-04-12T03:46:41;8.60;99.90
46336;DHT22;31365;48.858;8.530;2023-04-12T03:49:11;8.60;99.90
46336;DHT22;31365;48.858;8.530;2023-04-12T03:52:01;8.60;99.90
46336;DHT22;31365;48.858;8.530;2023-04-12T03:54:30;8.50;99.90
46336;DHT22;31365;48.858;8.530;2023-04-12T03:57:03;8.50;99.90
46336;DHT22;31365;48.858;8.530;2023-04-12T03:59:39;8.50;99.90
46336;DHT22;31365;48.858;8.530;2023-04-12T04:02:09;8.50;99.90
46336;DHT22;31365;48.858;8.530;2023-04-12T04:04:45;8.50;99.90
46336;DHT22;31365;48.858;8.530;2023-04-12T04:07:22;8.50;99.90
46336;DHT22;31365;48.858;8.530;2023-04-12T04:09:53;8.50;99.90
46336;DHT22;31365;48.858;8.530;2023-04-12T04:12:26;8.50;99.90
46336;DHT22;31365;48.858;8.530;2023-04-12T04:14:54;8.40;99.90
46336;DHT22;31365;48.858;8.530;2023-04-12T04:17:28;8.40;99.90
46336;DHT22;31365;48.858;8.530;2023-04-12T04:19:58;8.40;99.90
46336;DHT22;31365;48.858;8.530;2023-04-12T04:22:30;8.40;99.90
46336;DHT22;31365;48.858;8.530;2023-04-12T04:25:00;8.40;99.90
46336;DHT22;31365;48.858;8.530;2023-04-12T04:27:33;8.40;99.90
46336;DHT22;31365;48.858;8.530;2023-04-12T04:30:06;8.40;99.90
46336;DHT22;31365;48.858;8.530;2023-04-12T04:32:41;8.40;99.90
46336;DHT22;31365;48.858;8.530;2023-04-12T04:35:12;8.40;99.90
46336;DHT22;31365;48.858;8.530;2023-04-12T04:37:54;8.50;99.90
46336;DHT22;31365;48.858;8.530;2023-04-12T04:40:25;8.40;99.90
46336;DHT22;31365;48.858;8.530;2023-04-12T04:42:56;8.40;99.90
46336;DHT22;31365;48.858;8.530;2023-04-12T04:45:29;8.40;99.90
46336;DHT22;31365;48.858;8.530;2023-04-12T04:47:59;8.50;99.90
46336;DHT22;31365;48.858;8.530;2023-04-12T04:50:30;8.40;99.90
46336;DHT22;31365;48.858;8.530;2023-04-12T04:52:58;8.50;99.90
46336;DHT22;31365;48.858;8.530;2023-04-12T04:55:27;8.40;99.90
46336;DHT22;31365;48.858;8.530;2023-04-12T04:57:56;8.40;99.90
46336;DHT22;31365;48.858;8.530;2023-04-12T05:00:25;8.40;99.90
46336;DHT22;31365;48.858;8.530;2023-04-12T05:02:56;8.50;99.90
46336;DHT22;31365;48.858;8.530;2023-04-12T05:05:27;8.50;99.90
46336;DHT22;31365;48.858;8.530;2023-04-12T05:08:05;8.50;99.90
46336;DHT22;31365;48.858;8.530;2023-04-12T05:10:34;8.50;99.90
46336;DHT22;31365;48.858;8.530;2023-04-12T05:13:02;8.50;99.90
46336;DHT22;31365;48.858;8.530;2023-04-12T05:15:30;8.50;99.90
46336;DHT22;31365;48.858;8.530;2023-04-12T05:17:59;8.60;99.90
46336;DHT22;31365;48.858;8.530;2023-04-12T05:20:29;8.60;99.90
46336;DHT22;31365;48.858;8.530;2023-04-12T05:22:58;8.60;99.90
46336;DHT22;31365;48.858;8.530;2023-04-12T05:25:28;8.70;99.90
46336;DHT22;31365;48.858;8.530;2023-04-12T05:28:02;8.70;99.90
46336;DHT22;31365;48.858;8.530;2023-04-12T05:30:32;8.70;99.90
46336;DHT22;31365;48.858;8.530;2023-04-12T05:33:01;8.70;99.90
46336;DHT22;31365;48.858;8.530;2023-04-12T05:35:30;8.80;99.90
46336;DHT22;31365;48.858;8.530;2023-04-12T05:37:59;8.80;99.90
46336;DHT22;31365;48.858;8.530;2023-04-12T05:40:28;8.80;99.90
46336;DHT22;31365;48.858;8.530;2023-04-12T05:42:58;8.90;99.90
46336;DHT22;31365;48.858;8.530;2023-04-12T05:45:29;8.90;99.90
46336;DHT22;31365;48.858;8.530;2023-04-12T05:48:00;8.90;99.90
46336;DHT22;31365;48.858;8.530;2023-04-12T05:50:28;9.00;99.90
46336;DHT22;31365;48.858;8.530;2023-04-12T05:52:56;9.00;99.90
46336;DHT22;31365;48.858;8.530;2023-04-12T05:55:29;9.00;99.90
46336;DHT22;31365;48.858;8.530;2023-04-12T05:57:58;9.10;99.90
46336;DHT22;31365;48.858;8.530;2023-04-12T06:00:27;9.10;99.90
46336;DHT22;31365;48.858;8.530;2023-04-12T06:02:56;9.10;99.90
46336;DHT22;31365;48.858;8.530;2023-04-12T06:05:25;9.00;99.90
46336;DHT22;31365;48.858;8.530;2023-04-12T06:07:53;9.10;99.90
46336;DHT22;31365;48.858;8.530;2023-04-12T06:10:21;9.10;99.90
46336;DHT22;31365;48.858;8.530;2023-04-12T06:12:53;9.20;99.90
46336;DHT22;31365;48.858;8.530;2023-04-12T06:15:21;9.20;99.90
46336;DHT22;31365;48.858;8.530;2023-04-12T06:17:52;9.20;99.90
46336;DHT22;31365;48.858;8.530;2023-04-12T06:20:20;9.30;99.90
46336;DHT22;31365;48.858;8.530;2023-04-12T06:22:49;9.40;99.90
46336;DHT22;31365;48.858;8.530;2023-04-12T06:25:17;9.40;99.90
46336;DHT22;31365;48.858;8.530;2023-04-12T06:27:47;9.50;99.90
46336;DHT22;31365;48.858;8.530;2023-04-12T06:30:18;9.60;99.90
46336;DHT22;31365;48.858;8.530;2023-04-12T06:32:50;9.60;99.90
46336;DHT22;31365;48.858;8.530;2023-04-12T06:35:18;9.70;99.90
46336;DHT22;31365;48.858;8.530;2023-04-12T06:37:47;9.70;99.90
46336;DHT22;31365;48.858;8.530;2023-04-12T06:40:15;9.80;99.90
46336;DHT22;31365;48.858;8.530;2023-04-12T06:42:44;9.90;99.90
46336;DHT22;31365;48.858;8.530;2023-04-12T06:45:12;9.90;99.90
46336;DHT22;31365;48.858;8.530;2023-04-12T06:47:41;10.00;99.90
46336;DHT22;31365;48.858;8.530;2023-04-12T06:50:10;10.00;99.90
46336;DHT22;31365;48.858;8.530;2023-04-12T06:52:38;10.10;99.90
46336;DHT22;31365;48.858;8.530;2023-04-12T06:55:07;10.10;99.90
46336;DHT22;31365;48.858;8.530;2023-04-12T06:57:36;10.20;99.90
46336;DHT22;31365;48.858;8.530;2023-04-12T07:00:05;10.30;99.90
46336;DHT22;31365;48.858;8.530;2023-04-12T07:02:34;10.20;99.90
46336;DHT22;31365;48.858;8.530;2023-04-12T07:05:05;10.30;99.90
46336;DHT22;31365;48.858;8.530;2023-04-12T07:07:33;10.30;99.90
46336;DHT22;31365;48.858;8.530;2023-04-12T07:10:02;10.40;99.90
46336;DHT22;31365;48.858;8.530;2023-04-12T07:12:31;10.50;99.90
46336;DHT22;31365;48.858;8.530;2023-04-12T07:14:59;10.50;99.90
46336;DHT22;31365;48.858;8.530;2023-04-12T07:17:27;10.60;99.90
46336;DHT22;31365;48.858;8.530;2023-04-12T07:19:56;10.70;99.90
46336;DHT22;31365;48.858;8.530;2023-04-12T07:22:26;10.70;99.90
46336;DHT22;31365;48.858;8.530;2023-04-12T07:24:54;10.70;99.90
46336;DHT22;31365;48.858;8.530;2023-04-12T07:27:22;10.80;99.90
46336;DHT22;31365;48.858;8.530;2023-04-12T07:29:50;10.80;99.90
46336;DHT22;31365;48.858;8.530;2023-04-12T07:32:19;10.80;99.90
46336;DHT22;31365;48.858;8.530;2023-04-12T07:34:47;10.90;99.90
46336;DHT22;31365;48.858;8.530;2023-04-12T07:37:15;11.00;99.90
46336;DHT22;31365;48.858;8.530;2023-04-12T07:39:44;11.00;99.90
46336;DHT22;31365;48.858;8.530;2023-04-12T07:42:13;11.00;99.90
46336;DHT22;31365;48.858;8.530;2023-04-12T07:44:41;11.10;99.90
46336;DHT22;31365;48.858;8.530;2023-04-12T07:47:09;11.10;99.90
46336;DHT22;31365;48.858;8.530;2023-04-12T07:49:37;11.20;99.90
46336;DHT22;31365;48.858;8.530;2023-04-12T07:52:05;11.20;99.90
46336;DHT22;31365;48.858;8.530;2023-04-12T07:54:33;11.20;99.90
46336;DHT22;31365;48.858;8.530;2023-04-12T07:57:03;11.20;99.90
46336;DHT22;31365;48.858;8.530;2023-04-12T07:59:31;11.30;99.90
46336;DHT22;31365;48.858;8.530;2023-04-12T08:01:59;11.40;99.90
46336;DHT22;31365;48.858;8.530;2023-04-12T08:04:29;11.50;99.90
46336;DHT22;31365;48.858;8.530;2023-04-12T08:06:57;11.40;99.90
46336;DHT22;31365;48.858;8.530;2023-04-12T08:09:25;11.50;99.90
46336;DHT22;31365;48.858;8.530;2023-04-12T08:11:54;11.50;99.90
46336;DHT22;31365;48.858;8.530;2023-04-12T08:14:23;11.60;99.90
46336;DHT22;31365;48.858;8.530;2023-04-12T08:16:52;11.60;99.90
46336;DHT22;31365;48.858;8.530;2023-04-12T08:19:20;11.70;99.90
46336;DHT22;31365;48.858;8.530;2023-04-12T08:21:48;11.70;99.90
46336;DHT22;31365;48.858;8.530;2023-04-12T08:24:16;11.90;99.90
46336;DHT22;31365;48.858;8.530;2023-04-12T08:26:45;11.90;99.90
46336;DHT22;31365;48.858;8.530;2023-04-12T08:29:13;11.80;99.90
46336;DHT22;31365;48.858;8.530;2023-04-12T08:31:43;11.90;99.90
46336;DHT22;31365;48.858;8.530;2023-04-12T08:34:12;11.90;99.90
46336;DHT22;31365;48.858;8.530;2023-04-12T08:36:40;11.70;99.90
46336;DHT22;31365;48.858;8.530;2023-04-12T08:39:08;11.60;99.90
46336;DHT22;31365;48.858;8.530;2023-04-12T08:41:37;11.50;99.90
46336;DHT22;31365;48.858;8.530;2023-04-12T08:44:06;11.40;99.90
46336;DHT22;31365;48.858;8.530;2023-04-12T08:46:35;11.30;99.90
46336;DHT22;31365;48.858;8.530;2023-04-12T08:49:04;11.30;99.90
46336;DHT22;31365;48.858;8.530;2023-04-12T08:51:33;11.30;99.90
46336;DHT22;31365;48.858;8.530;2023-04-12T08:54:04;11.30;99.90
46336;DHT22;31365;48.858;8.530;2023-04-12T08:56:33;11.40;99.90
46336;DHT22;31365;48.858;8.530;2023-04-12T08:59:01;11.50;99.90
46336;DHT22;31365;48.858;8.530;2023-04-12T09:01:31;11.60;99.90
46336;DHT22;31365;48.858;8.530;2023-04-12T09:04:06;11.50;99.90
46336;DHT22;31365;48.858;8.530;2023-04-12T09:06:35;11.60;99.90
46336;DHT22;31365;48.858;8.530;2023-04-12T09:09:03;11.70;99.90
46336;DHT22;31365;48.858;8.530;2023-04-12T09:11:33;11.80;99.90
46336;DHT22;31365;48.858;8.530;2023-04-12T09:14:02;11.90;99.90
46336;DHT22;31365;48.858;8.530;2023-04-12T09:16:36;11.90;99.90
46336;DHT22;31365;48.858;8.530;2023-04-12T09:19:07;11.90;99.90
46336;DHT22;31365;48.858;8.530;2023-04-12T09:21:35;11.90;99.90
46336;DHT22;31365;48.858;8.530;2023-04-12T09:24:05;11.90;99.90
46336;DHT22;31365;48.858;8.530;2023-04-12T09:26:40;11.80;99.90
46336;DHT22;31365;48.858;8.530;2023-04-12T09:29:21;11.70;99.90
46336;DHT22;31365;48.858;8.530;2023-04-12T09:31:58;11.60;99.90
46336;DHT22;31365;48.858;8.530;2023-04-12T09:34:30;11.60;99.90
46336;DHT22;31365;48.858;8.530;2023-04-12T09:36:59;11.60;99.90
46336;DHT22;31365;48.858;8.530;2023-04-12T09:39:39;11.60;99.90
46336;DHT22;31365;48.858;8.530;2023-04-12T09:42:08;11.60;99.90
46336;DHT22;31365;48.858;8.530;2023-04-12T09:44:58;11.70;99.90
46336;DHT22;31365;48.858;8.530;2023-04-12T09:47:36;11.80;99.90
46336;DHT22;31365;48.858;8.530;2023-04-12T10:24:10;12.60;99.90
46336;DHT22;31365;48.858;8.530;2023-04-12T10:26:40;12.80;99.90
46336;DHT22;31365;48.858;8.530;2023-04-12T10:29:23;12.80;99.90
46336;DHT22;31365;48.858;8.530;2023-04-12T10:31:52;13.00;99.90
46336;DHT22;31365;48.858;8.530;2023-04-12T10:34:28;13.30;99.90
46336;DHT22;31365;48.858;8.530;2023-04-12T10:36:59;13.40;99.90
46336;DHT22;31365;48.858;8.530;2023-04-12T10:39:36;13.60;99.90
46336;DHT22;31365;48.858;8.530;2023-04-12T10:42:17;13.60;99.90
46336;DHT22;31365;48.858;8.530;2023-04-12T10:44:50;13.50;99.90
46336;DHT22;31365;48.858;8.530;2023-04-12T10:47:55;13.50;99.90
46336;DHT22;31365;48.858;8.530;2023-04-12T10:50:28;13.40;99.90
46336;DHT22;31365;48.858;8.530;2023-04-12T10:53:22;13.40;99.90
46336;DHT22;31365;48.858;8.530;2023-04-12T10:55:56;13.50;99.90
46336;DHT22;31365;48.858;8.530;2023-04-12T10:58:55;13.60;99.90
46336;DHT22;31365;48.858;8.530;2023-04-12T11:01:29;13.70;99.90
46336;DHT22;31365;48.858;8.530;2023-04-12T11:04:11;13.70;99.90
46336;DHT22;31365;48.858;8.530;2023-04-12T11:06:57;13.70;99.90
46336;DHT22;31365;48.858;8.530;2023-04-12T11:09:46;13.80;99.90
46336;DHT22;31365;48.858;8.530;2023-04-12T11:12:26;13.90;99.90
46336;DHT22;31365;48.858;8.530;2023-04-12T11:14:59;14.20;99.90
46336;DHT22;31365;48.858;8.530;2023-04-12T11:17:54;14.50;99.90
46336;DHT22;31365;48.858;8.530;2023-04-12T11:20:25;15.10;99.90
46336;DHT22;31365;48.858;8.530;2023-04-12T11:22:54;15.30;99.90
46336;DHT22;31365;48.858;8.530;2023-04-12T11:25:24;15.60;99.90
46336;DHT22;31365;48.858;8.530;2023-04-12T11:27:54;15.90;99.90
46336;DHT22;31365;48.858;8.530;2023-04-12T11:30:26;16.20;99.90
46336;DHT22;31365;48.858;8.530;2023-04-12T11:32:54;16.60;99.90
46336;DHT22;31365;48.858;8.530;2023-04-12T11:35:22;16.90;99.90
46336;DHT22;31365;48.858;8.530;2023-04-12T11:37:54;17.10;99.90
46336;DHT22;31365;48.858;8.530;2023-04-12T11:40:24;17.40;99.90
46336;DHT22;31365;48.858;8.530;2023-04-12T11:42:54;17.10;99.90
46336;DHT22;31365;48.858;8.530;2023-04-12T11:45:23;16.70;99.90
46336;DHT22;31365;48.858;8.530;2023-04-12T11:47:52;16.00;99.90
46336;DHT22;31365;48.858;8.530;2023-04-12T11:50:27;16.00;99.90
46336;DHT22;31365;48.858;8.530;2023-04-12T11:53:09;15.80;99.90
46336;DHT22;31365;48.858;8.530;2023-04-12T11:55:38;16.00;99.90
46336;DHT22;31365;48.858;8.530;2023-04-12T11:58:08;16.30;99.90
46336;DHT22;31365;48.858;8.530;2023-04-12T12:00:36;17.00;99.90
46336;DHT22;31365;48.858;8.530;2023-04-12T12:03:05;17.90;99.90
46336;DHT22;31365;48.858;8.530;2023-04-12T12:05:35;18.40;99.90
46336;DHT22;31365;48.858;8.530;2023-04-12T12:08:05;18.10;99.90
46336;DHT22;31365;48.858;8.530;2023-04-12T12:10:34;17.30;99.90
46336;DHT22;31365;48.858;8.530;2023-04-12T12:13:23;16.80;99.90
46336;DHT22;31365;48.858;8.530;2023-04-12T12:15:52;16.40;99.90
46336;DHT22;31365;48.858;8.530;2023-04-12T12:18:24;16.50;99.90
46336;DHT22;31365;48.858;8.530;2023-04-12T12:20:54;17.60;99.90
46336;DHT22;31365;48.858;8.530;2023-04-12T12:23:29;18.70;99.90
46336;DHT22;31365;48.858;8.530;2023-04-12T12:25:58;19.30;99.90
46336;DHT22;31365;48.858;8.530;2023-04-12T12:28:51;19.90;99.90
46336;DHT22;31365;48.858;8.530;2023-04-12T12:31:22;20.10;99.90
46336;DHT22;31365;48.858;8.530;2023-04-12T12:33:53;19.10;99.90
46336;DHT22;31365;48.858;8.530;2023-04-12T12:36:29;18.40;99.90
46336;DHT22;31365;48.858;8.530;2023-04-12T12:39:03;18.00;99.90
46336;DHT22;31365;48.858;8.530;2023-04-12T12:41:36;17.50;99.90
46336;DHT22;31365;48.858;8.530;2023-04-12T12:44:06;17.00;99.90
46336;DHT22;31365;48.858;8.530;2023-04-12T12:46:36;16.70;99.90
46336;DHT22;31365;48.858;8.530;2023-04-12T12:49:07;16.40;99.90
46336;DHT22;31365;48.858;8.530;2023-04-12T12:51:36;16.20;99.90
46336;DHT22;31365;48.858;8.530;2023-04-12T12:54:04;16.10;99.90
46336;DHT22;31365;48.858;8.530;2023-04-12T12:56:33;16.10;99.90
46336;DHT22;31365;48.858;8.530;2023-04-12T12:59:02;16.20;99.90
46336;DHT22;31365;48.858;8.530;2023-04-12T13:01:31;16.40;99.90
46336;DHT22;31365;48.858;8.530;2023-04-12T13:04:00;16.80;99.90
46336;DHT22;31365;48.858;8.530;2023-04-12T13:06:29;17.50;99.90
46336;DHT22;31365;48.858;8.530;2023-04-12T13:08:58;18.30;99.90
46336;DHT22;31365;48.858;8.530;2023-04-12T13:11:26;18.80;99.90
46336;DHT22;31365;48.858;8.530;2023-04-12T13:13:54;18.40;99.90
46336;DHT22;31365;48.858;8.530;2023-04-12T13:16:22;18.10;99.90
46336;DHT22;31365;48.858;8.530;2023-04-12T13:18:54;18.70;99.90
46336;DHT22;31365;48.858;8.530;2023-04-12T13:21:23;19.20;99.90
46336;DHT22;31365;48.858;8.530;2023-04-12T13:23:52;19.60;99.90
46336;DHT22;31365;48.858;8.530;2023-04-12T13:26:20;20.30;99.90
46336;DHT22;31365;48.858;8.530;2023-04-12T13:28:51;20.90;99.90
46336;DHT22;31365;48.858;8.530;2023-04-12T13:31:19;21.00;99.90
46336;DHT22;31365;48.858;8.530;2023-04-12T13:33:47;20.80;99.90
46336;DHT22;31365;48.858;8.530;2023-04-12T13:36:17;20.60;99.90
46336;DHT22;31365;48.858;8.530;2023-04-12T13:38:45;20.10;99.90
46336;DHT22;31365;48.858;8.530;2023-04-12T13:41:14;19.60;99.90
46336;DHT22;31365;48.858;8.530;2023-04-12T13:43:42;19.30;99.90
46336;DHT22;31365;48.858;8.530;2023-04-12T13:46:10;19.60;99.90
46336;DHT22;31365;48.858;8.530;2023-04-12T13:48:39;20.10;99.90
46336;DHT22;31365;48.858;8.530;2023-04-12T13:51:07;21.00;99.90
46336;DHT22;31365;48.858;8.530;2023-04-12T13:53:37;21.80;99.90
46336;DHT22;31365;48.858;8.530;2023-04-12T13:56:06;22.00;99.90
46336;DHT22;31365;48.858;8.530;2023-04-12T13:58:34;22.40;99.90
46336;DHT22;31365;48.858;8.530;2023-04-12T14:01:05;22.30;99.90
46336;DHT22;31365;48.858;8.530;2023-04-12T14:03:34;22.80;99.90
46336;DHT22;31365;48.858;8.530;2023-04-12T14:06:02;23.40;99.90
46336;DHT22;31365;48.858;8.530;2023-04-12T14:08:32;22.60;99.90
46336;DHT22;31365;48.858;8.530;2023-04-12T14:11:02;21.40;99.90
46336;DHT22;31365;48.858;8.530;2023-04-12T14:13:30;20.40;99.90
46336;DHT22;31365;48.858;8.530;2023-04-12T14:15:58;19.40;99.90
46336;DHT22;31365;48.858;8.530;2023-04-12T14:18:26;18.70;99.90
46336;DHT22;31365;48.858;8.530;2023-04-12T14:20:54;18.10;99.90
46336;DHT22;31365;48.858;8.530;2023-04-12T14:23:24;17.50;99.90
46336;DHT22;31365;48.858;8.530;2023-04-12T14:25:53;16.80;99.90
46336;DHT22;31365;48.858;8.530;2023-04-12T14:28:22;16.40;99.90
46336;DHT22;31365;48.858;8.530;2023-04-12T14:30:56;15.90;99.90
46336;DHT22;31365;48.858;8.530;2023-04-12T14:33:26;15.00;99.90
46336;DHT22;31365;48.858;8.530;2023-04-12T14:35:55;13.30;99.90
46336;DHT22;31365;48.858;8.530;2023-04-12T14:38:23;11.90;99.90
46336;DHT22;31365;48.858;8.530;2023-04-12T14:40:52;11.20;99.90
46336;DHT22;31365;48.858;8.530;2023-04-12T14:43:20;10.60;99.90
46336;DHT22;31365;48.858;8.530;2023-04-12T14:45:50;10.30;99.90
46336;DHT22;31365;48.858;8.530;2023-04-12T14:48:19;10.10;99.90
46336;DHT22;31365;48.858;8.530;2023-04-12T14:50:47;10.00;99.90
46336;DHT22;31365;48.858;8.530;2023-04-12T14:53:15;9.90;99.90
46336;DHT22;31365;48.858;8.530;2023-04-12T14:55:45;10.00;99.90
46336;DHT22;31365;48.858;8.530;2023-04-12T14:58:14;9.90;99.90
46336;DHT22;31365;48.858;8.530;2023-04-12T15:00:43;9.90;99.90
46336;DHT22;31365;48.858;8.530;2023-04-12T15:03:13;9.90;99.90
46336;DHT22;31365;48.858;8.530;2023-04-12T15:05:42;9.80;99.90
46336;DHT22;31365;48.858;8.530;2023-04-12T15:08:10;9.80;99.90
46336;DHT22;31365;48.858;8.530;2023-04-12T15:10:38;9.80;99.90
46336;DHT22;31365;48.858;8.530;2023-04-12T15:13:06;9.80;99.90
46336;DHT22;31365;48.858;8.530;2023-04-12T15:15:34;9.80;99.90
46336;DHT22;31365;48.858;8.530;2023-04-12T15:18:04;10.00;99.90
46336;DHT22;31365;48.858;8.530;2023-04-12T15:20:32;10.00;99.90
46336;DHT22;31365;48.858;8.530;2023-04-12T15:23:01;10.20;99.90
46336;DHT22;31365;48.858;8.530;2023-04-12T15:25:29;10.20;99.90
46336;DHT22;31365;48.858;8.530;2023-04-12T15:27:58;10.30;99.90
46336;DHT22;31365;48.858;8.530;2023-04-12T15:30:27;10.40;99.90
46336;DHT22;31365;48.858;8.530;2023-04-12T15:32:55;10.60;99.90
46336;DHT22;31365;48.858;8.530;2023-04-12T15:35:25;10.70;99.90
46336;DHT22;31365;48.858;8.530;2023-04-12T15:37:54;10.90;99.90
46336;DHT22;31365;48.858;8.530;2023-04-12T15:40:22;11.00;99.90
46336;DHT22;31365;48.858;8.530;2023-04-12T15:42:50;11.10;99.90
46336;DHT22;31365;48.858;8.530;2023-04-12T15:45:18;11.10;99.90
46336;DHT22;31365;48.858;8.530;2023-04-12T15:47:46;11.20;99.90
46336;DHT22;31365;48.858;8.530;2023-04-12T15:50:15;11.30;99.90
46336;DHT22;31365;48.858;8.530;2023-04-12T15:52:46;11.30;99.90
46336;DHT22;31365;48.858;8.530;2023-04-12T15:55:15;11.40;99.90
46336;DHT22;31365;48.858;8.530;2023-04-12T15:57:45;11.40;99.90
46336;DHT22;31365;48.858;8.530;2023-04-12T16:00:14;11.30;99.90
46336;DHT22;31365;48.858;8.530;2023-04-12T16:02:50;11.30;99.90
46336;DHT22;31365;48.858;8.530;2023-04-12T16:05:20;11.20;99.90
46336;DHT22;31365;48.858;8.530;2023-04-12T16:07:52;11.20;99.90
46336;DHT22;31365;48.858;8.530;2023-04-12T16:10:22;11.20;99.90
46336;DHT22;31365;48.858;8.530;2023-04-12T16:12:51;11.10;99.90
46336;DHT22;31365;48.858;8.530;2023-04-12T16:15:20;11.10;99.90
46336;DHT22;31365;48.858;8.530;2023-04-12T16:17:49;11.00;99.90
46336;DHT22;31365;48.858;8.530;2023-04-12T16:20:20;10.90;99.90
46336;DHT22;31365;48.858;8.530;2023-04-12T16:22:52;10.90;99.90
46336;DHT22;31365;48.858;8.530;2023-04-12T16:25:22;11.00;99.90
46336;DHT22;31365;48.858;8.530;2023-04-12T16:27:53;11.10;99.90
46336;DHT22;31365;48.858;8.530;2023-04-12T16:30:21;11.10;99.90
46336;DHT22;31365;48.858;8.530;2023-04-12T16:32:51;11.20;99.90
46336;DHT22;31365;48.858;8.530;2023-04-12T16:35:20;11.20;99.90
46336;DHT22;31365;48.858;8.530;2023-04-12T16:37:48;11.20;99.90